Kezdőlap
METAR-TAF:

METAR-TAF

Repülőterek :

Salluit, Québec, Kanada

földrajzi szélesség: 62-11N, földrajzi hosszúság: 075-40W, magasság: 226 m

Jelenlegi meteorológiai megfigyelések

A jelentés 9 órával és 1 perccel ezelõtt készült, 13:00 UTC
Észak-északkeleti szél 28 kt széllökések: 37 kt
Hőmérséklet -12°C
Páratartalom 85%
Légköri nyomás 1003 hPa
Látótávolság: 0.4 km
hó, (erõs) , hó

METAR: CYZG 211300Z 03028G37KT 1/4SM SN +BLSN VV003 M12/M14 A2961 RMK BLSN8 SN CVR SOFT PACT/LAST STFD OBS/NEXT OBS 221200UTC SLP053

Idő: 18:01 (22:01 UTC)


TAF: hiányzik

Meteorológiai megfigyelések és előrejelzések több, mint 4000 repülőtéren (METAR és TAF jelentéseket).

A térképen piros és sárga pontok jelzik az elérhető meteorológiai állomásokat.

Mozgassa az egeret a pont fölött, hogy megjelenjen az állomás neve.

Azután kattintson az időjárási megfigyelések és előrejelzések megtekintéséhez.

A térkép megváltoztatása: kattintson a fekete keresztel jelölt zöld gombra ráközelítéshez, a vonallal jelölt zöld gombra távolításhoz, vagy a zöld nyilakra a szomszédos térképek eléréséhez.


METAR-TAF: